Главная страница
METAR-TAF:

METAR-TAF

Аэропорты :

Харьков, Украина

широта: 49-58N, долгота: 036-08E, высота над уровнем моря: 154 м

Текущие метеонаблюдения

Эта сводка был подготовлена 36 минут назад, в 07:30 UTC
Ветер 4 Узел от северный, изменяющийся между северо-западный и северо-северо-восточный
Температура 13°C
Влажность 67%
Давление 1016 hPa
Видимость 10 км и более
Нет облачности ниже 1500 м, и нет кучево-дождевой облачности

METAR: UKHH 200730Z 35002MPS 320V030 CAVOK 13/07 Q1016 R25/0///72 NOSIG

Время: 11:06 (08:06 UTC)

Прогноз

Эта сводка был подготовлена 2 часа и 56 минут назад, в 05:10 UTC
Прогноз действительный с 20-го 06 UTC до 20-го 15 UTC
Ветер 6 Узел от северо-северо-восточный
Видимость: 6000 м
Отдельные облака на высоте 1500 фута
временами
С 20-го 06 UTC до 20-го 08 UTC
Видимость: 2100 м
Отдельные облака на высоте 600 фута
дымка

TAF: UKHH 200510Z 2006/2015 03003MPS 6000 SCT015 TEMPO 2006/2008 2100 BR SCT006

Метеонаблюдения и прогнозы для более 4000 аэропортов (сводки METAR и TAF).

Имеющиеся станции представлены на карте желтыми и красными точками.

Чтобы увидеть название станции, наведите на нее мышь.

Затем щелкните, чтобы увидеть метеонаблюдения и метеопрогнозы.

Управление картой: чтобы увеличить масштаб, щелкните зеленые кнопки с черным крестиком; чтобы уменьшить масштаб, щелкните зеленую кнопку с тире; для просмотра соседних карт щелкайте зеленые стрелки.


METAR-TAF: